sensor_id;sensor_type;location;lat;lon;timestamp;P1;durP1;ratioP1;P2;durP2;ratioP2
3991;SDS011;2010;48.194;16.394;2023-02-22T00:02:17;3.70;;;2.80;;
3991;SDS011;2010;48.194;16.394;2023-02-22T00:04:58;2.63;;;2.43;;
3991;SDS011;2010;48.194;16.394;2023-02-22T00:07:27;3.30;;;3.00;;
3991;SDS011;2010;48.194;16.394;2023-02-22T00:09:57;3.03;;;2.70;;
3991;SDS011;2010;48.194;16.394;2023-02-22T00:12:41;2.60;;;2.40;;
3991;SDS011;2010;48.194;16.394;2023-02-22T00:15:10;2.10;;;1.90;;
3991;SDS011;2010;48.194;16.394;2023-02-22T00:17:41;2.93;;;2.57;;
3991;SDS011;2010;48.194;16.394;2023-02-22T00:20:11;2.27;;;2.03;;
3991;SDS011;2010;48.194;16.394;2023-02-22T00:22:45;3.30;;;2.40;;
3991;SDS011;2010;48.194;16.394;2023-02-22T00:25:15;2.77;;;2.37;;
3991;SDS011;2010;48.194;16.394;2023-02-22T00:27:59;2.80;;;2.50;;
3991;SDS011;2010;48.194;16.394;2023-02-22T00:30:31;2.10;;;1.87;;
3991;SDS011;2010;48.194;16.394;2023-02-22T00:33:03;6.20;;;2.40;;
3991;SDS011;2010;48.194;16.394;2023-02-22T00:35:36;2.37;;;2.00;;
3991;SDS011;2010;48.194;16.394;2023-02-22T00:38:15;2.00;;;1.90;;
3991;SDS011;2010;48.194;16.394;2023-02-22T00:40:46;3.70;;;2.20;;
3991;SDS011;2010;48.194;16.394;2023-02-22T00:43:19;2.43;;;2.23;;
3991;SDS011;2010;48.194;16.394;2023-02-22T00:45:51;2.50;;;1.97;;
3991;SDS011;2010;48.194;16.394;2023-02-22T00:48:20;3.70;;;2.20;;
3991;SDS011;2010;48.194;16.394;2023-02-22T00:50:53;2.40;;;2.20;;
3991;SDS011;2010;48.194;16.394;2023-02-22T00:53:25;2.70;;;2.50;;
3991;SDS011;2010;48.194;16.394;2023-02-22T00:55:58;4.53;;;2.50;;
3991;SDS011;2010;48.194;16.394;2023-02-22T00:58:30;2.50;;;2.30;;
3991;SDS011;2010;48.194;16.394;2023-02-22T01:01:01;2.37;;;1.90;;
3991;SDS011;2010;48.194;16.394;2023-02-22T01:03:30;2.57;;;2.37;;
3991;SDS011;2010;48.194;16.394;2023-02-22T01:06:01;3.73;;;2.40;;
3991;SDS011;2010;48.194;16.394;2023-02-22T01:08:36;2.70;;;2.40;;
3991;SDS011;2010;48.194;16.394;2023-02-22T01:11:07;2.47;;;2.27;;
3991;SDS011;2010;48.194;16.394;2023-02-22T01:13:37;1.97;;;1.70;;
3991;SDS011;2010;48.194;16.394;2023-02-22T01:16:14;2.23;;;2.03;;
3991;SDS011;2010;48.194;16.394;2023-02-22T01:18:51;2.07;;;1.97;;
3991;SDS011;2010;48.194;16.394;2023-02-22T01:21:21;2.40;;;2.10;;
3991;SDS011;2010;48.194;16.394;2023-02-22T01:23:53;2.00;;;1.90;;
3991;SDS011;2010;48.194;16.394;2023-02-22T01:26:23;3.60;;;2.30;;
3991;SDS011;2010;48.194;16.394;2023-02-22T01:29:07;2.13;;;1.90;;
3991;SDS011;2010;48.194;16.394;2023-02-22T01:31:42;3.23;;;2.40;;
3991;SDS011;2010;48.194;16.394;2023-02-22T01:34:18;3.60;;;2.10;;
3991;SDS011;2010;48.194;16.394;2023-02-22T01:36:53;2.77;;;1.93;;
3991;SDS011;2010;48.194;16.394;2023-02-22T01:39:31;2.50;;;2.17;;
3991;SDS011;2010;48.194;16.394;2023-02-22T01:42:00;2.10;;;1.90;;
3991;SDS011;2010;48.194;16.394;2023-02-22T01:44:31;1.80;;;1.63;;
3991;SDS011;2010;48.194;16.394;2023-02-22T01:47:05;2.47;;;2.27;;
3991;SDS011;2010;48.194;16.394;2023-02-22T01:49:38;2.77;;;1.70;;
3991;SDS011;2010;48.194;16.394;2023-02-22T01:52:11;3.20;;;2.47;;
3991;SDS011;2010;48.194;16.394;2023-02-22T01:54:48;6.33;;;2.50;;
3991;SDS011;2010;48.194;16.394;2023-02-22T01:57:24;2.47;;;1.73;;
3991;SDS011;2010;48.194;16.394;2023-02-22T02:00:05;3.07;;;2.40;;
3991;SDS011;2010;48.194;16.394;2023-02-22T02:02:40;3.10;;;2.43;;
3991;SDS011;2010;48.194;16.394;2023-02-22T02:05:12;2.60;;;2.40;;
3991;SDS011;2010;48.194;16.394;2023-02-22T02:07:42;3.30;;;2.67;;
3991;SDS011;2010;48.194;16.394;2023-02-22T02:10:13;2.20;;;2.00;;
3991;SDS011;2010;48.194;16.394;2023-02-22T02:12:55;6.23;;;2.33;;
3991;SDS011;2010;48.194;16.394;2023-02-22T02:15:33;1.83;;;1.73;;
3991;SDS011;2010;48.194;16.394;2023-02-22T02:18:03;3.70;;;1.73;;
3991;SDS011;2010;48.194;16.394;2023-02-22T02:20:37;2.73;;;2.50;;
3991;SDS011;2010;48.194;16.394;2023-02-22T02:23:25;2.43;;;2.00;;
3991;SDS011;2010;48.194;16.394;2023-02-22T02:35:13;2.70;;;2.37;;
3991;SDS011;2010;48.194;16.394;2023-02-22T02:37:50;2.87;;;2.23;;
3991;SDS011;2010;48.194;16.394;2023-02-22T02:40:26;4.07;;;2.20;;
3991;SDS011;2010;48.194;16.394;2023-02-22T02:42:59;3.43;;;2.37;;
3991;SDS011;2010;48.194;16.394;2023-02-22T02:45:34;2.53;;;2.20;;
3991;SDS011;2010;48.194;16.394;2023-02-22T02:48:13;2.10;;;2.00;;
3991;SDS011;2010;48.194;16.394;2023-02-22T02:50:49;2.10;;;2.00;;
3991;SDS011;2010;48.194;16.394;2023-02-22T02:53:29;2.40;;;2.07;;
3991;SDS011;2010;48.194;16.394;2023-02-22T02:56:02;3.43;;;2.20;;
3991;SDS011;2010;48.194;16.394;2023-02-22T02:58:41;2.40;;;2.20;;
3991;SDS011;2010;48.194;16.394;2023-02-22T03:01:42;3.50;;;2.27;;
3991;SDS011;2010;48.194;16.394;2023-02-22T03:04:20;3.53;;;2.30;;
3991;SDS011;2010;48.194;16.394;2023-02-22T03:07:03;2.47;;;2.27;;
3991;SDS011;2010;48.194;16.394;2023-02-22T03:09:59;2.17;;;2.07;;
3991;SDS011;2010;48.194;16.394;2023-02-22T03:12:37;4.53;;;2.10;;
3991;SDS011;2010;48.194;16.394;2023-02-22T03:15:18;2.00;;;1.90;;
3991;SDS011;2010;48.194;16.394;2023-02-22T03:17:59;4.30;;;2.40;;
3991;SDS011;2010;48.194;16.394;2023-02-22T03:20:41;2.30;;;2.03;;
3991;SDS011;2010;48.194;16.394;2023-02-22T03:23:31;2.40;;;2.20;;
3991;SDS011;2010;48.194;16.394;2023-02-22T03:26:05;3.90;;;2.70;;
3991;SDS011;2010;48.194;16.394;2023-02-22T03:28:42;2.60;;;2.20;;
3991;SDS011;2010;48.194;16.394;2023-02-22T03:31:14;3.47;;;2.37;;
3991;SDS011;2010;48.194;16.394;2023-02-22T03:33:51;2.60;;;2.40;;
3991;SDS011;2010;48.194;16.394;2023-02-22T03:36:23;2.50;;;2.30;;
3991;SDS011;2010;48.194;16.394;2023-02-22T03:39:00;2.93;;;2.67;;
3991;SDS011;2010;48.194;16.394;2023-02-22T03:41:31;2.53;;;2.33;;
3991;SDS011;2010;48.194;16.394;2023-02-22T03:44:05;2.93;;;2.73;;
3991;SDS011;2010;48.194;16.394;2023-02-22T03:46:36;2.70;;;2.20;;
3991;SDS011;2010;48.194;16.394;2023-02-22T03:49:13;2.73;;;2.53;;
3991;SDS011;2010;48.194;16.394;2023-02-22T03:51:47;2.80;;;2.60;;
3991;SDS011;2010;48.194;16.394;2023-02-22T03:54:31;2.50;;;2.30;;
3991;SDS011;2010;48.194;16.394;2023-02-22T03:57:05;2.33;;;2.23;;
3991;SDS011;2010;48.194;16.394;2023-02-22T03:59:44;2.60;;;2.40;;
3991;SDS011;2010;48.194;16.394;2023-02-22T04:02:15;2.30;;;2.20;;
3991;SDS011;2010;48.194;16.394;2023-02-22T04:04:48;3.93;;;2.73;;
3991;SDS011;2010;48.194;16.394;2023-02-22T04:07:28;2.60;;;2.40;;
3991;SDS011;2010;48.194;16.394;2023-02-22T04:09:59;2.80;;;2.60;;
3991;SDS011;2010;48.194;16.394;2023-02-22T04:12:31;3.33;;;2.60;;
3991;SDS011;2010;48.194;16.394;2023-02-22T04:15:04;3.73;;;2.80;;
3991;SDS011;2010;48.194;16.394;2023-02-22T04:17:37;2.73;;;2.53;;
3991;SDS011;2010;48.194;16.394;2023-02-22T04:20:13;2.93;;;2.73;;
3991;SDS011;2010;48.194;16.394;2023-02-22T04:22:52;2.93;;;2.50;;
3991;SDS011;2010;48.194;16.394;2023-02-22T04:25:26;2.87;;;2.57;;
3991;SDS011;2010;48.194;16.394;2023-02-22T04:28:13;2.60;;;2.40;;
3991;SDS011;2010;48.194;16.394;2023-02-22T04:30:57;2.80;;;2.57;;
3991;SDS011;2010;48.194;16.394;2023-02-22T04:33:27;4.33;;;3.00;;
3991;SDS011;2010;48.194;16.394;2023-02-22T04:36:06;3.00;;;2.70;;
3991;SDS011;2010;48.194;16.394;2023-02-22T04:38:46;3.70;;;2.67;;
3991;SDS011;2010;48.194;16.394;2023-02-22T04:41:30;4.53;;;2.97;;
3991;SDS011;2010;48.194;16.394;2023-02-22T04:44:02;2.53;;;2.40;;
3991;SDS011;2010;48.194;16.394;2023-02-22T04:46:32;3.00;;;2.70;;
3991;SDS011;2010;48.194;16.394;2023-02-22T04:49:02;4.20;;;3.30;;
3991;SDS011;2010;48.194;16.394;2023-02-22T04:51:34;3.10;;;2.50;;
3991;SDS011;2010;48.194;16.394;2023-02-22T04:54:11;2.83;;;2.63;;
3991;SDS011;2010;48.194;16.394;2023-02-22T04:56:56;5.57;;;2.43;;
3991;SDS011;2010;48.194;16.394;2023-02-22T04:59:26;4.00;;;2.87;;
3991;SDS011;2010;48.194;16.394;2023-02-22T05:02:03;4.10;;;2.90;;
3991;SDS011;2010;48.194;16.394;2023-02-22T05:04:32;4.77;;;3.03;;
3991;SDS011;2010;48.194;16.394;2023-02-22T05:07:07;2.90;;;2.70;;
3991;SDS011;2010;48.194;16.394;2023-02-22T05:09:36;3.10;;;2.80;;
3991;SDS011;2010;48.194;16.394;2023-02-22T05:12:12;3.70;;;2.60;;
3991;SDS011;2010;48.194;16.394;2023-02-22T05:14:43;3.53;;;3.23;;
3991;SDS011;2010;48.194;16.394;2023-02-22T05:17:12;4.30;;;3.40;;
3991;SDS011;2010;48.194;16.394;2023-02-22T05:19:41;3.00;;;2.80;;
3991;SDS011;2010;48.194;16.394;2023-02-22T05:22:10;3.70;;;3.07;;
3991;SDS011;2010;48.194;16.394;2023-02-22T05:24:40;3.87;;;2.77;;
3991;SDS011;2010;48.194;16.394;2023-02-22T05:27:10;3.33;;;2.60;;
3991;SDS011;2010;48.194;16.394;2023-02-22T05:29:54;3.40;;;3.10;;
3991;SDS011;2010;48.194;16.394;2023-02-22T05:32:30;4.50;;;2.87;;
3991;SDS011;2010;48.194;16.394;2023-02-22T05:35:14;4.73;;;3.00;;
3991;SDS011;2010;48.194;16.394;2023-02-22T05:37:51;2.77;;;2.57;;
3991;SDS011;2010;48.194;16.394;2023-02-22T05:40:24;3.57;;;3.13;;
3991;SDS011;2010;48.194;16.394;2023-02-22T05:42:57;3.23;;;2.93;;
3991;SDS011;2010;48.194;16.394;2023-02-22T05:45:41;2.87;;;2.67;;
3991;SDS011;2010;48.194;16.394;2023-02-22T05:48:17;5.90;;;3.17;;
3991;SDS011;2010;48.194;16.394;2023-02-22T05:50:57;3.33;;;2.93;;
3991;SDS011;2010;48.194;16.394;2023-02-22T05:53:28;4.57;;;3.57;;
3991;SDS011;2010;48.194;16.394;2023-02-22T05:56:00;3.50;;;3.10;;
3991;SDS011;2010;48.194;16.394;2023-02-22T05:58:29;4.00;;;3.33;;
3991;SDS011;2010;48.194;16.394;2023-02-22T06:01:01;3.10;;;2.80;;
3991;SDS011;2010;48.194;16.394;2023-02-22T06:03:37;3.80;;;3.30;;
3991;SDS011;2010;48.194;16.394;2023-02-22T06:06:07;3.67;;;3.30;;
3991;SDS011;2010;48.194;16.394;2023-02-22T06:08:47;5.77;;;3.37;;
3991;SDS011;2010;48.194;16.394;2023-02-22T06:11:25;4.33;;;3.10;;
3991;SDS011;2010;48.194;16.394;2023-02-22T06:13:56;5.30;;;3.70;;
3991;SDS011;2010;48.194;16.394;2023-02-22T06:16:31;3.53;;;3.23;;
3991;SDS011;2010;48.194;16.394;2023-02-22T06:19:02;4.87;;;3.57;;
3991;SDS011;2010;48.194;16.394;2023-02-22T06:21:49;3.23;;;3.00;;
3991;SDS011;2010;48.194;16.394;2023-02-22T06:24:18;3.33;;;3.00;;
3991;SDS011;2010;48.194;16.394;2023-02-22T06:26:58;3.47;;;3.17;;
3991;SDS011;2010;48.194;16.394;2023-02-22T06:29:29;4.40;;;3.47;;
3991;SDS011;2010;48.194;16.394;2023-02-22T06:32:06;3.80;;;3.20;;
3991;SDS011;2010;48.194;16.394;2023-02-22T06:34:37;3.53;;;2.63;;
3991;SDS011;2010;48.194;16.394;2023-02-22T06:37:07;3.40;;;2.20;;
3991;SDS011;2010;48.194;16.394;2023-02-22T06:39:39;3.87;;;3.20;;
3991;SDS011;2010;48.194;16.394;2023-02-22T06:42:18;3.33;;;2.93;;
3991;SDS011;2010;48.194;16.394;2023-02-22T06:44:48;4.30;;;3.27;;
3991;SDS011;2010;48.194;16.394;2023-02-22T06:47:30;5.60;;;2.70;;
3991;SDS011;2010;48.194;16.394;2023-02-22T06:50:04;3.57;;;3.27;;
3991;SDS011;2010;48.194;16.394;2023-02-22T06:52:40;4.27;;;3.40;;
3991;SDS011;2010;48.194;16.394;2023-02-22T06:55:16;3.80;;;3.30;;
3991;SDS011;2010;48.194;16.394;2023-02-22T06:57:53;4.37;;;3.67;;
3991;SDS011;2010;48.194;16.394;2023-02-22T07:00:22;6.20;;;4.63;;
3991;SDS011;2010;48.194;16.394;2023-02-22T07:03:07;4.70;;;4.30;;
3991;SDS011;2010;48.194;16.394;2023-02-22T07:05:39;4.13;;;3.70;;
3991;SDS011;2010;48.194;16.394;2023-02-22T07:08:22;6.73;;;4.20;;
3991;SDS011;2010;48.194;16.394;2023-02-22T07:10:55;10.90;;;3.73;;
3991;SDS011;2010;48.194;16.394;2023-02-22T07:13:26;6.33;;;3.77;;
3991;SDS011;2010;48.194;16.394;2023-02-22T07:15:55;5.50;;;4.40;;
3991;SDS011;2010;48.194;16.394;2023-02-22T07:18:25;8.07;;;3.70;;
3991;SDS011;2010;48.194;16.394;2023-02-22T07:20:57;6.00;;;3.30;;
3991;SDS011;2010;48.194;16.394;2023-02-22T07:23:32;6.10;;;3.63;;
3991;SDS011;2010;48.194;16.394;2023-02-22T07:26:05;4.50;;;3.50;;
3991;SDS011;2010;48.194;16.394;2023-02-22T07:28:34;3.30;;;3.00;;
3991;SDS011;2010;48.194;16.394;2023-02-22T07:31:03;3.80;;;3.40;;
3991;SDS011;2010;48.194;16.394;2023-02-22T07:33:39;4.90;;;3.43;;
3991;SDS011;2010;48.194;16.394;2023-02-22T07:36:19;5.17;;;3.30;;
3991;SDS011;2010;48.194;16.394;2023-02-22T07:38:52;3.57;;;2.97;;
3991;SDS011;2010;48.194;16.394;2023-02-22T07:41:21;3.90;;;3.27;;
3991;SDS011;2010;48.194;16.394;2023-02-22T07:43:55;5.37;;;3.23;;
3991;SDS011;2010;48.194;16.394;2023-02-22T07:46:26;4.17;;;3.33;;
3991;SDS011;2010;48.194;16.394;2023-02-22T07:48:59;10.10;;;2.80;;
3991;SDS011;2010;48.194;16.394;2023-02-22T07:51:33;3.40;;;2.80;;
3991;SDS011;2010;48.194;16.394;2023-02-22T07:54:02;5.10;;;2.73;;
3991;SDS011;2010;48.194;16.394;2023-02-22T07:56:42;3.97;;;2.90;;
3991;SDS011;2010;48.194;16.394;2023-02-22T07:59:12;4.00;;;3.60;;
3991;SDS011;2010;48.194;16.394;2023-02-22T08:01:42;7.83;;;3.67;;
3991;SDS011;2010;48.194;16.394;2023-02-22T08:04:15;3.87;;;3.30;;
3991;SDS011;2010;48.194;16.394;2023-02-22T08:06:44;4.80;;;3.90;;
3991;SDS011;2010;48.194;16.394;2023-02-22T08:09:15;5.10;;;4.27;;
3991;SDS011;2010;48.194;16.394;2023-02-22T08:11:45;3.07;;;2.77;;
3991;SDS011;2010;48.194;16.394;2023-02-22T08:14:25;3.43;;;3.10;;
3991;SDS011;2010;48.194;16.394;2023-02-22T08:16:59;4.63;;;3.27;;
3991;SDS011;2010;48.194;16.394;2023-02-22T08:19:34;4.93;;;3.20;;
3991;SDS011;2010;48.194;16.394;2023-02-22T08:22:06;5.00;;;3.83;;
3991;SDS011;2010;48.194;16.394;2023-02-22T08:24:42;8.20;;;3.60;;
3991;SDS011;2010;48.194;16.394;2023-02-22T08:27:11;3.20;;;2.70;;
3991;SDS011;2010;48.194;16.394;2023-02-22T08:29:43;3.63;;;3.30;;
3991;SDS011;2010;48.194;16.394;2023-02-22T08:32:15;4.07;;;3.77;;
3991;SDS011;2010;48.194;16.394;2023-02-22T08:34:54;3.73;;;3.37;;
3991;SDS011;2010;48.194;16.394;2023-02-22T08:37:23;7.33;;;3.90;;
3991;SDS011;2010;48.194;16.394;2023-02-22T08:39:52;4.47;;;3.70;;
3991;SDS011;2010;48.194;16.394;2023-02-22T08:42:29;6.27;;;4.00;;
3991;SDS011;2010;48.194;16.394;2023-02-22T08:45:05;6.43;;;4.80;;
3991;SDS011;2010;48.194;16.394;2023-02-22T08:47:38;7.60;;;3.83;;
3991;SDS011;2010;48.194;16.394;2023-02-22T08:50:24;5.80;;;3.57;;
3991;SDS011;2010;48.194;16.394;2023-02-22T08:53:00;4.00;;;3.10;;
3991;SDS011;2010;48.194;16.394;2023-02-22T08:55:32;4.10;;;3.30;;
3991;SDS011;2010;48.194;16.394;2023-02-22T08:58:09;3.23;;;2.93;;
3991;SDS011;2010;48.194;16.394;2023-02-22T09:00:45;7.27;;;3.63;;
3991;SDS011;2010;48.194;16.394;2023-02-22T09:03:16;3.80;;;2.77;;
3991;SDS011;2010;48.194;16.394;2023-02-22T09:05:50;3.13;;;2.83;;
3991;SDS011;2010;48.194;16.394;2023-02-22T09:08:19;3.73;;;3.00;;
3991;SDS011;2010;48.194;16.394;2023-02-22T09:10:54;4.23;;;3.03;;
3991;SDS011;2010;48.194;16.394;2023-02-22T09:13:23;4.57;;;3.57;;
3991;SDS011;2010;48.194;16.394;2023-02-22T09:16:00;4.60;;;3.03;;
3991;SDS011;2010;48.194;16.394;2023-02-22T09:18:32;3.43;;;3.20;;
3991;SDS011;2010;48.194;16.394;2023-02-22T09:21:14;3.63;;;3.13;;
3991;SDS011;2010;48.194;16.394;2023-02-22T09:23:47;4.90;;;3.00;;
3991;SDS011;2010;48.194;16.394;2023-02-22T09:26:23;6.40;;;3.27;;
3991;SDS011;2010;48.194;16.394;2023-02-22T09:28:53;4.53;;;3.73;;
3991;SDS011;2010;48.194;16.394;2023-02-22T09:31:27;10.17;;;4.40;;
3991;SDS011;2010;48.194;16.394;2023-02-22T09:33:58;5.83;;;3.83;;
3991;SDS011;2010;48.194;16.394;2023-02-22T09:36:33;6.00;;;4.90;;
3991;SDS011;2010;48.194;16.394;2023-02-22T09:39:02;6.73;;;4.77;;
3991;SDS011;2010;48.194;16.394;2023-02-22T09:41:35;7.60;;;4.67;;
3991;SDS011;2010;48.194;16.394;2023-02-22T09:44:14;8.10;;;4.10;;
3991;SDS011;2010;48.194;16.394;2023-02-22T09:46:54;7.73;;;5.00;;
3991;SDS011;2010;48.194;16.394;2023-02-22T09:49:26;10.50;;;5.30;;
3991;SDS011;2010;48.194;16.394;2023-02-22T09:52:02;5.10;;;4.37;;
3991;SDS011;2010;48.194;16.394;2023-02-22T09:54:37;4.90;;;4.13;;
3991;SDS011;2010;48.194;16.394;2023-02-22T09:57:11;6.40;;;4.10;;
3991;SDS011;2010;48.194;16.394;2023-02-22T09:59:52;5.83;;;3.73;;
3991;SDS011;2010;48.194;16.394;2023-02-22T10:02:39;8.50;;;3.80;;
3991;SDS011;2010;48.194;16.394;2023-02-22T10:05:15;6.27;;;4.00;;
3991;SDS011;2010;48.194;16.394;2023-02-22T10:07:57;5.37;;;3.80;;
3991;SDS011;2010;48.194;16.394;2023-02-22T10:10:33;4.70;;;3.50;;
3991;SDS011;2010;48.194;16.394;2023-02-22T10:13:11;6.17;;;4.60;;
3991;SDS011;2010;48.194;16.394;2023-02-22T10:15:49;6.53;;;3.70;;
3991;SDS011;2010;48.194;16.394;2023-02-22T10:21:41;6.17;;;4.07;;
3991;SDS011;2010;48.194;16.394;2023-02-22T10:24:23;4.27;;;3.60;;
3991;SDS011;2010;48.194;16.394;2023-02-22T10:27:05;5.17;;;3.53;;
3991;SDS011;2010;48.194;16.394;2023-02-22T10:29:40;5.33;;;3.37;;
3991;SDS011;2010;48.194;16.394;2023-02-22T10:32:16;3.63;;;3.33;;
3991;SDS011;2010;48.194;16.394;2023-02-22T10:34:50;3.93;;;3.27;;
3991;SDS011;2010;48.194;16.394;2023-02-22T10:37:22;5.73;;;3.63;;
3991;SDS011;2010;48.194;16.394;2023-02-22T10:40:12;3.33;;;3.13;;
3991;SDS011;2010;48.194;16.394;2023-02-22T10:42:49;4.43;;;3.50;;
3991;SDS011;2010;48.194;16.394;2023-02-22T10:45:24;3.40;;;3.10;;
3991;SDS011;2010;48.194;16.394;2023-02-22T10:48:06;3.13;;;2.93;;
3991;SDS011;2010;48.194;16.394;2023-02-22T10:50:53;3.73;;;3.00;;
3991;SDS011;2010;48.194;16.394;2023-02-22T10:53:35;3.10;;;2.90;;
3991;SDS011;2010;48.194;16.394;2023-02-22T10:56:27;3.23;;;2.93;;
3991;SDS011;2010;48.194;16.394;2023-02-22T10:58:57;3.50;;;3.17;;
3991;SDS011;2010;48.194;16.394;2023-02-22T11:01:33;3.83;;;3.33;;
3991;SDS011;2010;48.194;16.394;2023-02-22T11:04:09;4.97;;;3.50;;
3991;SDS011;2010;48.194;16.394;2023-02-22T11:06:43;3.87;;;3.57;;
3991;SDS011;2010;48.194;16.394;2023-02-22T11:09:17;3.97;;;3.30;;
3991;SDS011;2010;48.194;16.394;2023-02-22T11:12:07;3.23;;;2.93;;
3991;SDS011;2010;48.194;16.394;2023-02-22T11:14:49;3.87;;;3.57;;
3991;SDS011;2010;48.194;16.394;2023-02-22T11:17:23;3.83;;;3.47;;
3991;SDS011;2010;48.194;16.394;2023-02-22T11:19:59;4.40;;;3.30;;
3991;SDS011;2010;48.194;16.394;2023-02-22T11:22:30;6.73;;;3.63;;
3991;SDS011;2010;48.194;16.394;2023-02-22T11:25:06;5.00;;;4.30;;
3991;SDS011;2010;48.194;16.394;2023-02-22T11:27:38;5.20;;;4.70;;
3991;SDS011;2010;48.194;16.394;2023-02-22T11:30:21;4.60;;;4.20;;
3991;SDS011;2010;48.194;16.394;2023-02-22T11:32:56;5.07;;;4.07;;
3991;SDS011;2010;48.194;16.394;2023-02-22T11:35:34;4.20;;;3.80;;
3991;SDS011;2010;48.194;16.394;2023-02-22T11:38:17;4.30;;;3.90;;
3991;SDS011;2010;48.194;16.394;2023-02-22T11:41:06;4.20;;;3.90;;
3991;SDS011;2010;48.194;16.394;2023-02-22T11:44:25;6.90;;;4.90;;
3991;SDS011;2010;48.194;16.394;2023-02-22T11:46:57;5.80;;;4.37;;
3991;SDS011;2010;48.194;16.394;2023-02-22T11:49:33;3.63;;;3.33;;
3991;SDS011;2010;48.194;16.394;2023-02-22T11:52:21;4.70;;;4.20;;
3991;SDS011;2010;48.194;16.394;2023-02-22T11:55:07;4.00;;;3.70;;
3991;SDS011;2010;48.194;16.394;2023-02-22T11:58:17;3.40;;;3.20;;
3991;SDS011;2010;48.194;16.394;2023-02-22T12:01:23;4.07;;;3.40;;
3991;SDS011;2010;48.194;16.394;2023-02-22T12:04:07;7.20;;;4.33;;
3991;SDS011;2010;48.194;16.394;2023-02-22T12:07:19;5.53;;;4.93;;
3991;SDS011;2010;48.194;16.394;2023-02-22T12:10:32;10.03;;;5.07;;
3991;SDS011;2010;48.194;16.394;2023-02-22T12:13:21;5.60;;;4.63;;
3991;SDS011;2010;48.194;16.394;2023-02-22T12:16:01;7.53;;;4.53;;
3991;SDS011;2010;48.194;16.394;2023-02-22T12:18:36;4.90;;;3.83;;
3991;SDS011;2010;48.194;16.394;2023-02-22T12:21:12;4.30;;;3.90;;
3991;SDS011;2010;48.194;16.394;2023-02-22T12:23:44;8.60;;;5.00;;
3991;SDS011;2010;48.194;16.394;2023-02-22T12:26:19;4.10;;;3.60;;
3991;SDS011;2010;48.194;16.394;2023-02-22T12:28:56;8.50;;;4.63;;
3991;SDS011;2010;48.194;16.394;2023-02-22T12:31:34;3.53;;;3.17;;
3991;SDS011;2010;48.194;16.394;2023-02-22T12:34:16;6.33;;;3.63;;
3991;SDS011;2010;48.194;16.394;2023-02-22T12:37:03;5.10;;;3.83;;
3991;SDS011;2010;48.194;16.394;2023-02-22T12:39:39;3.77;;;3.43;;
3991;SDS011;2010;48.194;16.394;2023-02-22T12:42:21;8.10;;;3.67;;
3991;SDS011;2010;48.194;16.394;2023-02-22T12:44:58;6.40;;;4.10;;
3991;SDS011;2010;48.194;16.394;2023-02-22T12:47:45;4.73;;;3.70;;
3991;SDS011;2010;48.194;16.394;2023-02-22T12:50:26;5.20;;;3.70;;
3991;SDS011;2010;48.194;16.394;2023-02-22T12:53:03;3.80;;;3.50;;
3991;SDS011;2010;48.194;16.394;2023-02-22T12:55:43;8.17;;;3.77;;
3991;SDS011;2010;48.194;16.394;2023-02-22T12:58:28;4.00;;;3.70;;
3991;SDS011;2010;48.194;16.394;2023-02-22T13:01:01;3.57;;;3.17;;
3991;SDS011;2010;48.194;16.394;2023-02-22T13:03:35;4.07;;;3.60;;
3991;SDS011;2010;48.194;16.394;2023-02-22T13:09:04;4.13;;;3.53;;
3991;SDS011;2010;48.194;16.394;2023-02-22T13:11:40;9.30;;;4.13;;
3991;SDS011;2010;48.194;16.394;2023-02-22T13:14:25;4.90;;;3.77;;
3991;SDS011;2010;48.194;16.394;2023-02-22T13:17:04;4.63;;;4.17;;
3991;SDS011;2010;48.194;16.394;2023-02-22T13:19:41;6.17;;;3.93;;
3991;SDS011;2010;48.194;16.394;2023-02-22T13:22:28;6.80;;;3.37;;
3991;SDS011;2010;48.194;16.394;2023-02-22T13:25:04;3.87;;;3.47;;
3991;SDS011;2010;48.194;16.394;2023-02-22T13:27:45;5.00;;;3.40;;
3991;SDS011;2010;48.194;16.394;2023-02-22T13:33:00;3.47;;;3.17;;
3991;SDS011;2010;48.194;16.394;2023-02-22T13:35:59;3.87;;;3.57;;
3991;SDS011;2010;48.194;16.394;2023-02-22T13:38:50;3.37;;;2.73;;
3991;SDS011;2010;48.194;16.394;2023-02-22T13:51:34;2.57;;;2.20;;
3991;SDS011;2010;48.194;16.394;2023-02-22T13:54:16;2.47;;;2.30;;
3991;SDS011;2010;48.194;16.394;2023-02-22T13:56:57;2.70;;;2.50;;
3991;SDS011;2010;48.194;16.394;2023-02-22T13:59:33;2.03;;;1.93;;
3991;SDS011;2010;48.194;16.394;2023-02-22T14:08:03;3.73;;;2.50;;
3991;SDS011;2010;48.194;16.394;2023-02-22T14:10:48;2.97;;;2.60;;
3991;SDS011;2010;48.194;16.394;2023-02-22T14:13:18;1.93;;;1.80;;
3991;SDS011;2010;48.194;16.394;2023-02-22T14:16:16;2.17;;;2.00;;
3991;SDS011;2010;48.194;16.394;2023-02-22T14:19:10;1.90;;;1.80;;
3991;SDS011;2010;48.194;16.394;2023-02-22T14:22:02;2.30;;;2.20;;
3991;SDS011;2010;48.194;16.394;2023-02-22T14:24:40;2.20;;;1.80;;
3991;SDS011;2010;48.194;16.394;2023-02-22T14:27:15;4.37;;;2.27;;
3991;SDS011;2010;48.194;16.394;2023-02-22T14:29:50;2.27;;;1.87;;
3991;SDS011;2010;48.194;16.394;2023-02-22T14:32:28;3.23;;;2.13;;
3991;SDS011;2010;48.194;16.394;2023-02-22T14:35:12;2.20;;;2.00;;
3991;SDS011;2010;48.194;16.394;2023-02-22T14:38:03;3.33;;;2.50;;
3991;SDS011;2010;48.194;16.394;2023-02-22T14:40:44;3.30;;;3.00;;
3991;SDS011;2010;48.194;16.394;2023-02-22T14:43:28;2.90;;;2.70;;
3991;SDS011;2010;48.194;16.394;2023-02-22T14:45:59;2.10;;;2.00;;
3991;SDS011;2010;48.194;16.394;2023-02-22T14:48:33;2.60;;;2.40;;
3991;SDS011;2010;48.194;16.394;2023-02-22T14:51:12;2.40;;;2.20;;
3991;SDS011;2010;48.194;16.394;2023-02-22T14:53:53;2.60;;;2.40;;
3991;SDS011;2010;48.194;16.394;2023-02-22T14:56:29;2.63;;;2.43;;
3991;SDS011;2010;48.194;16.394;2023-02-22T15:02:03;2.90;;;2.70;;
3991;SDS011;2010;48.194;16.394;2023-02-22T15:04:38;3.20;;;2.90;;
3991;SDS011;2010;48.194;16.394;2023-02-22T15:07:23;3.30;;;2.80;;
3991;SDS011;2010;48.194;16.394;2023-02-22T15:12:53;3.53;;;2.60;;
3991;SDS011;2010;48.194;16.394;2023-02-22T15:15:37;2.80;;;2.60;;
3991;SDS011;2010;48.194;16.394;2023-02-22T15:18:13;2.80;;;2.60;;
3991;SDS011;2010;48.194;16.394;2023-02-22T15:20:54;3.07;;;2.87;;
3991;SDS011;2010;48.194;16.394;2023-02-22T15:23:26;3.40;;;3.10;;
3991;SDS011;2010;48.194;16.394;2023-02-22T15:25:59;4.77;;;2.97;;
3991;SDS011;2010;48.194;16.394;2023-02-22T15:28:32;2.73;;;2.53;;
3991;SDS011;2010;48.194;16.394;2023-02-22T15:31:20;3.80;;;2.97;;
3991;SDS011;2010;48.194;16.394;2023-02-22T15:34:09;2.60;;;2.40;;
3991;SDS011;2010;48.194;16.394;2023-02-22T15:36:50;5.33;;;3.50;;
3991;SDS011;2010;48.194;16.394;2023-02-22T15:39:22;3.37;;;2.97;;
3991;SDS011;2010;48.194;16.394;2023-02-22T15:42:04;2.80;;;2.60;;
3991;SDS011;2010;48.194;16.394;2023-02-22T15:44:36;2.90;;;2.70;;
3991;SDS011;2010;48.194;16.394;2023-02-22T15:47:19;3.73;;;3.13;;
3991;SDS011;2010;48.194;16.394;2023-02-22T15:52:50;3.57;;;3.30;;
3991;SDS011;2010;48.194;16.394;2023-02-22T15:55:28;3.17;;;2.93;;
3991;SDS011;2010;48.194;16.394;2023-02-22T15:58:10;3.70;;;2.73;;
3991;SDS011;2010;48.194;16.394;2023-02-22T16:00:57;3.27;;;2.80;;
3991;SDS011;2010;48.194;16.394;2023-02-22T16:06:26;3.50;;;3.13;;
3991;SDS011;2010;48.194;16.394;2023-02-22T16:09:12;3.53;;;3.23;;
3991;SDS011;2010;48.194;16.394;2023-02-22T16:12:05;4.10;;;2.90;;
3991;SDS011;2010;48.194;16.394;2023-02-22T16:14:40;3.37;;;3.17;;
3991;SDS011;2010;48.194;16.394;2023-02-22T16:17:28;3.77;;;3.23;;
3991;SDS011;2010;48.194;16.394;2023-02-22T16:20:31;8.00;;;4.27;;
3991;SDS011;2010;48.194;16.394;2023-02-22T16:23:22;3.90;;;3.50;;
3991;SDS011;2010;48.194;16.394;2023-02-22T16:26:16;5.77;;;3.40;;
3991;SDS011;2010;48.194;16.394;2023-02-22T16:28:57;5.40;;;3.93;;
3991;SDS011;2010;48.194;16.394;2023-02-22T16:31:40;5.20;;;3.70;;
3991;SDS011;2010;48.194;16.394;2023-02-22T16:34:13;5.67;;;4.23;;
3991;SDS011;2010;48.194;16.394;2023-02-22T16:36:48;4.53;;;3.83;;
3991;SDS011;2010;48.194;16.394;2023-02-22T16:39:25;4.10;;;3.70;;
3991;SDS011;2010;48.194;16.394;2023-02-22T16:42:09;5.30;;;4.20;;
3991;SDS011;2010;48.194;16.394;2023-02-22T16:44:39;5.80;;;4.10;;
3991;SDS011;2010;48.194;16.394;2023-02-22T16:47:17;6.10;;;4.60;;